sensor_id;sensor_type;location;lat;lon;timestamp;P1;durP1;ratioP1;P2;durP2;ratioP2
60257;SDS011;46115;44.484;11.314;2024-03-08T00:02:56;8.30;;;6.10;;
60257;SDS011;46115;44.484;11.314;2024-03-08T00:06:59;8.77;;;6.20;;
60257;SDS011;46115;44.484;11.314;2024-03-08T00:11:03;9.57;;;5.90;;
60257;SDS011;46115;44.484;11.314;2024-03-08T00:15:06;9.23;;;5.68;;
60257;SDS011;46115;44.484;11.314;2024-03-08T00:19:09;9.48;;;5.90;;
60257;SDS011;46115;44.484;11.314;2024-03-08T00:23:12;10.48;;;6.38;;
60257;SDS011;46115;44.484;11.314;2024-03-08T00:27:18;11.15;;;6.07;;
60257;SDS011;46115;44.484;11.314;2024-03-08T00:31:21;8.93;;;6.03;;
60257;SDS011;46115;44.484;11.314;2024-03-08T00:35:24;8.75;;;5.82;;
60257;SDS011;46115;44.484;11.314;2024-03-08T00:39:26;9.27;;;5.38;;
60257;SDS011;46115;44.484;11.314;2024-03-08T00:43:30;9.82;;;5.60;;
60257;SDS011;46115;44.484;11.314;2024-03-08T00:47:33;10.80;;;5.70;;
60257;SDS011;46115;44.484;11.314;2024-03-08T00:51:35;9.45;;;5.72;;
60257;SDS011;46115;44.484;11.314;2024-03-08T00:55:38;10.63;;;5.57;;
60257;SDS011;46115;44.484;11.314;2024-03-08T00:59:42;10.18;;;5.60;;
60257;SDS011;46115;44.484;11.314;2024-03-08T01:03:44;12.45;;;5.70;;
60257;SDS011;46115;44.484;11.314;2024-03-08T01:07:47;9.07;;;5.85;;
60257;SDS011;46115;44.484;11.314;2024-03-08T01:11:50;10.82;;;5.55;;
60257;SDS011;46115;44.484;11.314;2024-03-08T01:15:56;9.95;;;5.90;;
60257;SDS011;46115;44.484;11.314;2024-03-08T01:19:59;8.63;;;5.82;;
60257;SDS011;46115;44.484;11.314;2024-03-08T01:24:01;11.77;;;5.75;;
60257;SDS011;46115;44.484;11.314;2024-03-08T01:28:04;9.18;;;5.70;;
60257;SDS011;46115;44.484;11.314;2024-03-08T01:32:08;9.40;;;5.80;;
60257;SDS011;46115;44.484;11.314;2024-03-08T01:36:11;9.18;;;5.80;;
60257;SDS011;46115;44.484;11.314;2024-03-08T01:40:16;10.23;;;5.30;;
60257;SDS011;46115;44.484;11.314;2024-03-08T01:44:18;11.88;;;5.63;;
60257;SDS011;46115;44.484;11.314;2024-03-08T01:48:22;9.52;;;5.57;;
60257;SDS011;46115;44.484;11.314;2024-03-08T01:52:25;8.98;;;5.65;;
60257;SDS011;46115;44.484;11.314;2024-03-08T01:56:28;8.00;;;5.30;;
60257;SDS011;46115;44.484;11.314;2024-03-08T02:00:32;8.30;;;5.65;;
60257;SDS011;46115;44.484;11.314;2024-03-08T02:04:38;9.95;;;5.55;;
60257;SDS011;46115;44.484;11.314;2024-03-08T02:08:41;8.93;;;5.60;;
60257;SDS011;46115;44.484;11.314;2024-03-08T02:12:45;10.30;;;5.50;;
60257;SDS011;46115;44.484;11.314;2024-03-08T02:16:49;9.02;;;5.50;;
60257;SDS011;46115;44.484;11.314;2024-03-08T02:20:53;7.00;;;5.18;;
60257;SDS011;46115;44.484;11.314;2024-03-08T02:24:56;8.88;;;5.35;;
60257;SDS011;46115;44.484;11.314;2024-03-08T02:29:02;9.68;;;5.80;;
60257;SDS011;46115;44.484;11.314;2024-03-08T02:33:05;8.65;;;5.20;;
60257;SDS011;46115;44.484;11.314;2024-03-08T02:37:09;8.80;;;5.13;;
60257;SDS011;46115;44.484;11.314;2024-03-08T02:41:11;13.35;;;4.93;;
60257;SDS011;46115;44.484;11.314;2024-03-08T02:45:14;8.85;;;4.75;;
60257;SDS011;46115;44.484;11.314;2024-03-08T02:49:17;7.97;;;5.20;;
60257;SDS011;46115;44.484;11.314;2024-03-08T02:53:21;8.05;;;4.75;;
60257;SDS011;46115;44.484;11.314;2024-03-08T02:57:25;9.82;;;5.60;;
60257;SDS011;46115;44.484;11.314;2024-03-08T03:01:28;12.00;;;6.07;;
60257;SDS011;46115;44.484;11.314;2024-03-08T03:05:30;10.57;;;6.47;;
60257;SDS011;46115;44.484;11.314;2024-03-08T03:09:34;10.10;;;6.00;;
60257;SDS011;46115;44.484;11.314;2024-03-08T03:13:37;9.65;;;5.60;;
60257;SDS011;46115;44.484;11.314;2024-03-08T03:17:39;9.18;;;5.30;;
60257;SDS011;46115;44.484;11.314;2024-03-08T03:21:42;6.90;;;4.68;;
60257;SDS011;46115;44.484;11.314;2024-03-08T03:25:46;7.45;;;5.03;;
60257;SDS011;46115;44.484;11.314;2024-03-08T03:29:48;7.90;;;5.20;;
60257;SDS011;46115;44.484;11.314;2024-03-08T03:33:52;9.65;;;5.10;;
60257;SDS011;46115;44.484;11.314;2024-03-08T03:37:55;8.48;;;5.63;;
60257;SDS011;46115;44.484;11.314;2024-03-08T03:42:08;9.27;;;5.40;;
60257;SDS011;46115;44.484;11.314;2024-03-08T03:46:11;8.38;;;5.30;;
60257;SDS011;46115;44.484;11.314;2024-03-08T03:50:13;8.48;;;5.30;;
60257;SDS011;46115;44.484;11.314;2024-03-08T03:54:16;7.28;;;5.25;;
60257;SDS011;46115;44.484;11.314;2024-03-08T03:58:20;9.32;;;5.40;;
60257;SDS011;46115;44.484;11.314;2024-03-08T04:02:23;8.98;;;5.50;;
60257;SDS011;46115;44.484;11.314;2024-03-08T04:06:27;9.65;;;5.50;;
60257;SDS011;46115;44.484;11.314;2024-03-08T04:10:29;9.23;;;5.40;;
60257;SDS011;46115;44.484;11.314;2024-03-08T04:14:33;9.65;;;5.43;;
60257;SDS011;46115;44.484;11.314;2024-03-08T04:18:36;9.25;;;5.65;;
60257;SDS011;46115;44.484;11.314;2024-03-08T04:22:39;10.80;;;5.75;;
60257;SDS011;46115;44.484;11.314;2024-03-08T04:26:41;7.22;;;5.10;;
60257;SDS011;46115;44.484;11.314;2024-03-08T04:30:45;8.40;;;5.32;;
60257;SDS011;46115;44.484;11.314;2024-03-08T04:34:48;9.98;;;4.97;;
60257;SDS011;46115;44.484;11.314;2024-03-08T04:38:50;10.95;;;5.25;;
60257;SDS011;46115;44.484;11.314;2024-03-08T04:42:53;10.57;;;5.60;;
60257;SDS011;46115;44.484;11.314;2024-03-08T04:46:57;10.07;;;5.50;;
60257;SDS011;46115;44.484;11.314;2024-03-08T04:51:01;8.48;;;5.80;;
60257;SDS011;46115;44.484;11.314;2024-03-08T04:55:05;10.35;;;5.80;;
60257;SDS011;46115;44.484;11.314;2024-03-08T04:59:08;10.38;;;5.88;;
60257;SDS011;46115;44.484;11.314;2024-03-08T05:03:12;7.47;;;5.07;;
60257;SDS011;46115;44.484;11.314;2024-03-08T05:07:14;7.15;;;5.15;;
60257;SDS011;46115;44.484;11.314;2024-03-08T05:11:17;8.35;;;4.80;;
60257;SDS011;46115;44.484;11.314;2024-03-08T05:15:19;8.27;;;5.15;;
60257;SDS011;46115;44.484;11.314;2024-03-08T05:19:23;9.43;;;5.45;;
60257;SDS011;46115;44.484;11.314;2024-03-08T05:23:26;8.60;;;5.50;;
60257;SDS011;46115;44.484;11.314;2024-03-08T05:27:28;9.98;;;5.20;;
60257;SDS011;46115;44.484;11.314;2024-03-08T05:35:39;9.30;;;5.70;;
60257;SDS011;46115;44.484;11.314;2024-03-08T05:39:42;8.10;;;4.80;;
60257;SDS011;46115;44.484;11.314;2024-03-08T05:43:45;8.73;;;5.03;;
60257;SDS011;46115;44.484;11.314;2024-03-08T05:47:48;8.02;;;5.00;;
60257;SDS011;46115;44.484;11.314;2024-03-08T05:51:53;10.30;;;4.53;;
60257;SDS011;46115;44.484;11.314;2024-03-08T05:55:56;9.63;;;5.18;;
60257;SDS011;46115;44.484;11.314;2024-03-08T05:59:58;6.88;;;4.78;;
60257;SDS011;46115;44.484;11.314;2024-03-08T06:04:01;6.22;;;4.32;;
60257;SDS011;46115;44.484;11.314;2024-03-08T06:08:06;9.35;;;4.40;;
60257;SDS011;46115;44.484;11.314;2024-03-08T06:12:08;9.38;;;5.13;;
60257;SDS011;46115;44.484;11.314;2024-03-08T06:16:12;8.02;;;4.50;;
60257;SDS011;46115;44.484;11.314;2024-03-08T06:24:18;6.85;;;4.80;;
60257;SDS011;46115;44.484;11.314;2024-03-08T06:28:20;6.35;;;4.53;;
60257;SDS011;46115;44.484;11.314;2024-03-08T06:36:25;6.47;;;4.10;;
60257;SDS011;46115;44.484;11.314;2024-03-08T06:40:29;8.32;;;4.45;;
60257;SDS011;46115;44.484;11.314;2024-03-08T06:44:31;10.23;;;4.32;;
60257;SDS011;46115;44.484;11.314;2024-03-08T06:48:33;6.97;;;3.97;;
60257;SDS011;46115;44.484;11.314;2024-03-08T06:52:38;7.03;;;3.90;;
60257;SDS011;46115;44.484;11.314;2024-03-08T06:56:42;5.65;;;3.67;;
60257;SDS011;46115;44.484;11.314;2024-03-08T07:00:44;5.78;;;3.65;;
60257;SDS011;46115;44.484;11.314;2024-03-08T07:04:47;6.07;;;3.40;;
60257;SDS011;46115;44.484;11.314;2024-03-08T07:08:51;6.50;;;3.58;;
60257;SDS011;46115;44.484;11.314;2024-03-08T07:12:55;5.25;;;3.42;;
60257;SDS011;46115;44.484;11.314;2024-03-08T07:16:57;7.10;;;4.25;;
60257;SDS011;46115;44.484;11.314;2024-03-08T07:21:00;10.85;;;8.10;;
60257;SDS011;46115;44.484;11.314;2024-03-08T07:25:03;9.57;;;6.00;;
60257;SDS011;46115;44.484;11.314;2024-03-08T07:29:22;14.32;;;10.43;;
60257;SDS011;46115;44.484;11.314;2024-03-08T07:33:24;14.38;;;10.65;;
60257;SDS011;46115;44.484;11.314;2024-03-08T07:37:28;14.57;;;10.30;;
60257;SDS011;46115;44.484;11.314;2024-03-08T07:41:30;16.23;;;11.20;;
60257;SDS011;46115;44.484;11.314;2024-03-08T07:45:36;13.75;;;10.20;;
60257;SDS011;46115;44.484;11.314;2024-03-08T07:49:38;15.27;;;10.75;;
60257;SDS011;46115;44.484;11.314;2024-03-08T07:53:41;14.18;;;9.77;;
60257;SDS011;46115;44.484;11.314;2024-03-08T07:57:44;15.90;;;10.10;;
60257;SDS011;46115;44.484;11.314;2024-03-08T08:01:49;15.88;;;9.93;;
60257;SDS011;46115;44.484;11.314;2024-03-08T08:05:52;16.95;;;11.25;;
60257;SDS011;46115;44.484;11.314;2024-03-08T08:09:54;12.45;;;9.10;;
60257;SDS011;46115;44.484;11.314;2024-03-08T08:13:57;14.23;;;9.73;;
60257;SDS011;46115;44.484;11.314;2024-03-08T08:18:01;14.85;;;10.13;;
60257;SDS011;46115;44.484;11.314;2024-03-08T08:22:06;16.10;;;10.80;;
60257;SDS011;46115;44.484;11.314;2024-03-08T08:26:10;15.02;;;9.88;;
60257;SDS011;46115;44.484;11.314;2024-03-08T08:30:12;11.88;;;9.80;;
60257;SDS011;46115;44.484;11.314;2024-03-08T08:34:16;12.18;;;9.73;;
60257;SDS011;46115;44.484;11.314;2024-03-08T08:38:20;11.23;;;8.70;;
60257;SDS011;46115;44.484;11.314;2024-03-08T08:42:22;13.68;;;9.18;;
60257;SDS011;46115;44.484;11.314;2024-03-08T08:46:25;13.73;;;9.50;;
60257;SDS011;46115;44.484;11.314;2024-03-08T08:50:28;10.45;;;8.10;;
60257;SDS011;46115;44.484;11.314;2024-03-08T08:54:31;12.18;;;9.13;;
60257;SDS011;46115;44.484;11.314;2024-03-08T08:58:34;12.68;;;9.77;;
60257;SDS011;46115;44.484;11.314;2024-03-08T09:02:37;12.38;;;9.45;;
60257;SDS011;46115;44.484;11.314;2024-03-08T09:06:40;11.73;;;9.35;;
60257;SDS011;46115;44.484;11.314;2024-03-08T09:10:43;16.42;;;8.75;;
60257;SDS011;46115;44.484;11.314;2024-03-08T09:14:46;13.68;;;10.30;;
60257;SDS011;46115;44.484;11.314;2024-03-08T09:18:48;10.82;;;8.90;;
60257;SDS011;46115;44.484;11.314;2024-03-08T09:22:52;9.63;;;7.40;;
60257;SDS011;46115;44.484;11.314;2024-03-08T09:26:55;11.82;;;8.40;;
60257;SDS011;46115;44.484;11.314;2024-03-08T09:30:59;10.65;;;8.88;;
60257;SDS011;46115;44.484;11.314;2024-03-08T09:35:02;13.18;;;10.27;;
60257;SDS011;46115;44.484;11.314;2024-03-08T09:39:09;16.73;;;10.73;;
60257;SDS011;46115;44.484;11.314;2024-03-08T09:43:17;16.30;;;11.75;;
60257;SDS011;46115;44.484;11.314;2024-03-08T09:47:20;18.13;;;12.15;;
60257;SDS011;46115;44.484;11.314;2024-03-08T09:51:28;16.20;;;12.52;;
60257;SDS011;46115;44.484;11.314;2024-03-08T09:55:32;18.08;;;12.85;;
60257;SDS011;46115;44.484;11.314;2024-03-08T09:59:37;20.23;;;15.27;;
60257;SDS011;46115;44.484;11.314;2024-03-08T10:03:48;19.10;;;14.25;;
60257;SDS011;46115;44.484;11.314;2024-03-08T10:07:51;18.75;;;14.70;;
60257;SDS011;46115;44.484;11.314;2024-03-08T10:11:55;19.10;;;14.45;;
60257;SDS011;46115;44.484;11.314;2024-03-08T10:15:58;20.05;;;14.13;;
60257;SDS011;46115;44.484;11.314;2024-03-08T10:20:02;25.45;;;15.18;;
60257;SDS011;46115;44.484;11.314;2024-03-08T10:24:15;26.00;;;15.98;;
60257;SDS011;46115;44.484;11.314;2024-03-08T10:28:20;19.38;;;14.82;;
60257;SDS011;46115;44.484;11.314;2024-03-08T10:32:25;22.60;;;15.85;;
60257;SDS011;46115;44.484;11.314;2024-03-08T10:36:28;22.40;;;14.48;;
60257;SDS011;46115;44.484;11.314;2024-03-08T10:40:31;20.02;;;14.90;;
60257;SDS011;46115;44.484;11.314;2024-03-08T10:44:52;18.52;;;14.13;;
60257;SDS011;46115;44.484;11.314;2024-03-08T10:49:03;18.38;;;14.25;;
60257;SDS011;46115;44.484;11.314;2024-03-08T10:53:10;15.68;;;9.20;;
60257;SDS011;46115;44.484;11.314;2024-03-08T10:57:13;14.80;;;9.90;;
60257;SDS011;46115;44.484;11.314;2024-03-08T11:01:20;15.05;;;11.15;;
60257;SDS011;46115;44.484;11.314;2024-03-08T11:05:32;13.85;;;9.65;;
60257;SDS011;46115;44.484;11.314;2024-03-08T11:09:40;15.00;;;10.63;;
60257;SDS011;46115;44.484;11.314;2024-03-08T11:13:43;15.23;;;11.57;;
60257;SDS011;46115;44.484;11.314;2024-03-08T11:17:48;15.93;;;11.65;;
60257;SDS011;46115;44.484;11.314;2024-03-08T11:21:57;16.63;;;10.15;;
60257;SDS011;46115;44.484;11.314;2024-03-08T11:26:01;13.95;;;10.05;;
60257;SDS011;46115;44.484;11.314;2024-03-08T11:30:08;11.95;;;8.35;;
60257;SDS011;46115;44.484;11.314;2024-03-08T11:34:16;11.65;;;8.02;;
60257;SDS011;46115;44.484;11.314;2024-03-08T11:38:19;11.10;;;6.63;;
60257;SDS011;46115;44.484;11.314;2024-03-08T11:42:22;12.30;;;7.22;;
60257;SDS011;46115;44.484;11.314;2024-03-08T11:46:25;10.13;;;6.63;;
60257;SDS011;46115;44.484;11.314;2024-03-08T11:50:30;8.73;;;6.40;;
60257;SDS011;46115;44.484;11.314;2024-03-08T11:54:34;14.25;;;6.95;;
60257;SDS011;46115;44.484;11.314;2024-03-08T11:58:37;9.60;;;6.10;;
60257;SDS011;46115;44.484;11.314;2024-03-08T12:02:39;9.48;;;6.65;;
60257;SDS011;46115;44.484;11.314;2024-03-08T12:06:44;9.00;;;6.07;;
60257;SDS011;46115;44.484;11.314;2024-03-08T12:10:48;9.18;;;5.72;;
60257;SDS011;46115;44.484;11.314;2024-03-08T12:14:51;8.75;;;5.70;;
60257;SDS011;46115;44.484;11.314;2024-03-08T12:18:53;11.02;;;5.22;;
60257;SDS011;46115;44.484;11.314;2024-03-08T12:22:57;8.35;;;4.93;;
60257;SDS011;46115;44.484;11.314;2024-03-08T12:27:01;7.75;;;5.00;;
60257;SDS011;46115;44.484;11.314;2024-03-08T12:31:19;9.07;;;5.75;;
60257;SDS011;46115;44.484;11.314;2024-03-08T12:35:24;7.95;;;5.03;;
60257;SDS011;46115;44.484;11.314;2024-03-08T12:39:29;8.30;;;4.75;;
60257;SDS011;46115;44.484;11.314;2024-03-08T12:43:32;9.18;;;5.47;;
60257;SDS011;46115;44.484;11.314;2024-03-08T12:47:34;10.65;;;5.47;;
60257;SDS011;46115;44.484;11.314;2024-03-08T12:51:37;12.20;;;5.45;;
60257;SDS011;46115;44.484;11.314;2024-03-08T12:55:41;7.57;;;3.70;;
60257;SDS011;46115;44.484;11.314;2024-03-08T12:59:44;8.93;;;4.45;;
60257;SDS011;46115;44.484;11.314;2024-03-08T13:03:46;7.47;;;4.45;;
60257;SDS011;46115;44.484;11.314;2024-03-08T13:07:50;10.77;;;5.80;;
60257;SDS011;46115;44.484;11.314;2024-03-08T13:11:55;14.77;;;8.07;;
60257;SDS011;46115;44.484;11.314;2024-03-08T13:15:59;12.57;;;7.78;;
60257;SDS011;46115;44.484;11.314;2024-03-08T13:20:02;11.05;;;8.63;;
60257;SDS011;46115;44.484;11.314;2024-03-08T13:24:06;11.40;;;8.20;;
60257;SDS011;46115;44.484;11.314;2024-03-08T13:28:09;14.15;;;9.18;;
60257;SDS011;46115;44.484;11.314;2024-03-08T13:32:12;13.05;;;8.05;;
60257;SDS011;46115;44.484;11.314;2024-03-08T13:36:15;13.18;;;8.85;;
60257;SDS011;46115;44.484;11.314;2024-03-08T13:40:17;13.57;;;9.15;;
60257;SDS011;46115;44.484;11.314;2024-03-08T13:44:22;14.32;;;9.57;;
60257;SDS011;46115;44.484;11.314;2024-03-08T13:48:26;13.23;;;9.43;;
60257;SDS011;46115;44.484;11.314;2024-03-08T13:52:28;13.60;;;8.48;;
60257;SDS011;46115;44.484;11.314;2024-03-08T13:56:31;12.65;;;9.25;;
60257;SDS011;46115;44.484;11.314;2024-03-08T14:00:35;16.10;;;9.35;;
60257;SDS011;46115;44.484;11.314;2024-03-08T14:04:37;12.43;;;8.95;;
60257;SDS011;46115;44.484;11.314;2024-03-08T14:08:40;11.65;;;8.90;;
60257;SDS011;46115;44.484;11.314;2024-03-08T14:12:42;12.98;;;9.10;;
60257;SDS011;46115;44.484;11.314;2024-03-08T14:16:46;15.93;;;9.68;;
60257;SDS011;46115;44.484;11.314;2024-03-08T14:20:49;12.52;;;9.77;;
60257;SDS011;46115;44.484;11.314;2024-03-08T14:24:52;14.32;;;9.38;;
60257;SDS011;46115;44.484;11.314;2024-03-08T14:28:56;13.52;;;10.02;;
60257;SDS011;46115;44.484;11.314;2024-03-08T14:33:00;15.93;;;9.45;;
60257;SDS011;46115;44.484;11.314;2024-03-08T14:37:03;12.20;;;8.98;;
60257;SDS011;46115;44.484;11.314;2024-03-08T14:41:09;14.10;;;9.52;;
60257;SDS011;46115;44.484;11.314;2024-03-08T14:45:11;12.68;;;9.73;;
60257;SDS011;46115;44.484;11.314;2024-03-08T14:49:15;13.15;;;9.25;;
60257;SDS011;46115;44.484;11.314;2024-03-08T14:53:19;14.90;;;10.35;;
60257;SDS011;46115;44.484;11.314;2024-03-08T14:57:22;13.13;;;9.23;;
60257;SDS011;46115;44.484;11.314;2024-03-08T15:01:24;17.42;;;9.52;;
60257;SDS011;46115;44.484;11.314;2024-03-08T15:05:31;14.55;;;9.63;;
60257;SDS011;46115;44.484;11.314;2024-03-08T15:09:36;16.48;;;10.30;;
60257;SDS011;46115;44.484;11.314;2024-03-08T15:13:41;13.82;;;10.20;;
60257;SDS011;46115;44.484;11.314;2024-03-08T15:17:45;14.80;;;10.05;;
60257;SDS011;46115;44.484;11.314;2024-03-08T15:21:49;13.02;;;10.30;;
60257;SDS011;46115;44.484;11.314;2024-03-08T15:25:56;13.00;;;10.07;;
60257;SDS011;46115;44.484;11.314;2024-03-08T15:29:58;14.98;;;9.50;;
60257;SDS011;46115;44.484;11.314;2024-03-08T15:34:00;15.70;;;9.60;;
60257;SDS011;46115;44.484;11.314;2024-03-08T15:38:09;14.20;;;10.18;;
60257;SDS011;46115;44.484;11.314;2024-03-08T15:42:11;15.40;;;9.85;;
60257;SDS011;46115;44.484;11.314;2024-03-08T15:46:14;13.50;;;9.90;;
60257;SDS011;46115;44.484;11.314;2024-03-08T15:50:16;12.90;;;9.55;;
60257;SDS011;46115;44.484;11.314;2024-03-08T15:54:20;16.75;;;9.57;;
60257;SDS011;46115;44.484;11.314;2024-03-08T15:58:22;13.25;;;9.25;;
60257;SDS011;46115;44.484;11.314;2024-03-08T16:02:25;13.98;;;9.07;;
60257;SDS011;46115;44.484;11.314;2024-03-08T16:06:29;13.15;;;8.80;;
60257;SDS011;46115;44.484;11.314;2024-03-08T16:10:33;14.55;;;9.25;;
60257;SDS011;46115;44.484;11.314;2024-03-08T16:14:36;14.38;;;9.15;;
60257;SDS011;46115;44.484;11.314;2024-03-08T16:18:40;13.52;;;8.95;;
60257;SDS011;46115;44.484;11.314;2024-03-08T16:22:42;12.95;;;8.75;;
60257;SDS011;46115;44.484;11.314;2024-03-08T16:26:47;17.25;;;8.75;;
60257;SDS011;46115;44.484;11.314;2024-03-08T16:30:49;15.75;;;8.45;;
60257;SDS011;46115;44.484;11.314;2024-03-08T16:34:55;15.18;;;8.57;;
60257;SDS011;46115;44.484;11.314;2024-03-08T16:38:57;13.90;;;9.18;;
60257;SDS011;46115;44.484;11.314;2024-03-08T16:43:01;15.57;;;8.85;;
60257;SDS011;46115;44.484;11.314;2024-03-08T16:47:03;14.48;;;8.45;;
60257;SDS011;46115;44.484;11.314;2024-03-08T16:51:07;15.80;;;8.52;;
60257;SDS011;46115;44.484;11.314;2024-03-08T16:55:10;11.52;;;9.30;;
60257;SDS011;46115;44.484;11.314;2024-03-08T16:59:18;12.95;;;9.65;;
60257;SDS011;46115;44.484;11.314;2024-03-08T17:03:20;12.60;;;8.93;;
60257;SDS011;46115;44.484;11.314;2024-03-08T17:07:22;11.70;;;9.10;;
60257;SDS011;46115;44.484;11.314;2024-03-08T17:11:25;12.60;;;9.15;;
60257;SDS011;46115;44.484;11.314;2024-03-08T17:15:29;14.25;;;9.32;;
60257;SDS011;46115;44.484;11.314;2024-03-08T17:19:35;12.98;;;10.13;;
60257;SDS011;46115;44.484;11.314;2024-03-08T17:23:38;15.52;;;10.07;;
60257;SDS011;46115;44.484;11.314;2024-03-08T17:27:42;14.82;;;9.80;;
60257;SDS011;46115;44.484;11.314;2024-03-08T17:31:51;13.50;;;9.80;;
60257;SDS011;46115;44.484;11.314;2024-03-08T17:35:54;17.90;;;10.50;;
60257;SDS011;46115;44.484;11.314;2024-03-08T17:39:56;13.65;;;9.90;;
60257;SDS011;46115;44.484;11.314;2024-03-08T17:43:59;12.73;;;9.90;;
60257;SDS011;46115;44.484;11.314;2024-03-08T23:06:08;29.77;;;21.83;;
60257;SDS011;46115;44.484;11.314;2024-03-08T23:10:13;31.95;;;21.88;;
60257;SDS011;46115;44.484;11.314;2024-03-08T23:14:15;32.15;;;22.48;;
60257;SDS011;46115;44.484;11.314;2024-03-08T23:18:18;34.45;;;23.13;;
60257;SDS011;46115;44.484;11.314;2024-03-08T23:22:22;29.70;;;20.98;;
60257;SDS011;46115;44.484;11.314;2024-03-08T23:26:24;31.38;;;22.52;;
60257;SDS011;46115;44.484;11.314;2024-03-08T23:30:28;38.80;;;23.35;;
60257;SDS011;46115;44.484;11.314;2024-03-08T23:34:31;28.95;;;21.60;;
60257;SDS011;46115;44.484;11.314;2024-03-08T23:38:35;35.75;;;23.15;;
60257;SDS011;46115;44.484;11.314;2024-03-08T23:42:38;34.53;;;22.83;;
60257;SDS011;46115;44.484;11.314;2024-03-08T23:46:41;35.88;;;23.33;;
60257;SDS011;46115;44.484;11.314;2024-03-08T23:50:45;34.20;;;23.45;;
60257;SDS011;46115;44.484;11.314;2024-03-08T23:54:49;33.47;;;22.45;;
60257;SDS011;46115;44.484;11.314;2024-03-08T23:58:52;33.55;;;22.05;;
